Main page
METAR-TAF:

METAR-TAF

Airports :

Oswego County Airport

Fulton, New York, United States

latitude: 43-21-03N, longitude: 076-23-17W, elevation: 476 ft

Current weather observation

The report was made 53 minutes ago, at 12:54 UTC
Wind 7 mph from the Southwest
Temperature 66°F
Humidity 78%
Pressure 29.73 in. Hg
Visibility: 10 miles
Scattered clouds at a height of 2800 ft
Broken clouds at a height of 6000 ft
Overcast at a height of 8000 ft

METAR: KFZY 201254Z AUTO 22006KT 10SM SCT028 BKN060 OVC080 19/15 A2973 RMK AO2 RAE1158 SLP064 P0000 T01940150

Time: 09:47 (13:47 UTC)


TAF: missing

Weather observations and forecasts of more than 4000 airports (METAR and TAF reports).

The available stations are represented by yellow and red dots on the map.

Hover mouse over dot to see the name of the station.

Then click to see weather observations and forecasts.

To change the map : click on the green buttons with a black cross to zoom in, on the green button with a dash to zoom out, or on the green arrows for adjacent maps.


METAR-TAF: